createdAt,value
2023-02-23T00:01:57.539Z,100876.22
2023-02-23T00:04:24.863Z,100868.47
2023-02-23T00:07:02.094Z,100869.56
2023-02-23T00:09:35.373Z,100866.50
2023-02-23T00:12:10.877Z,100873.00
2023-02-23T00:14:39.895Z,100879.75
2023-02-23T00:17:14.273Z,100868.69
2023-02-23T00:19:46.050Z,100877.78
2023-02-23T00:22:12.863Z,100864.19
2023-02-23T00:24:42.863Z,100872.72
2023-02-23T00:27:09.634Z,100860.91
2023-02-23T00:29:39.861Z,100868.94
2023-02-23T00:32:06.700Z,100861.91
2023-02-23T00:34:33.548Z,100851.59
2023-02-23T00:37:00.127Z,100849.88
2023-02-23T00:39:29.552Z,100852.44
2023-02-23T00:41:56.617Z,100854.91
2023-02-23T00:44:35.683Z,100858.22
2023-02-23T00:47:03.428Z,100854.50
2023-02-23T00:49:30.391Z,100847.34
2023-02-23T00:51:56.832Z,100842.47
2023-02-23T00:54:23.483Z,100853.97
2023-02-23T00:56:51.349Z,100838.03
2023-02-23T00:59:40.727Z,100844.81
2023-02-23T01:02:10.356Z,100861.00
2023-02-23T01:04:36.763Z,100857.47
2023-02-23T01:07:09.640Z,100855.91
2023-02-23T01:09:36.246Z,100860.84
2023-02-23T01:12:12.361Z,100855.56
2023-02-23T01:14:38.860Z,100847.69
2023-02-23T01:17:10.271Z,100846.41
2023-02-23T01:20:14.123Z,100848.38
2023-02-23T01:22:40.642Z,100842.47
2023-02-23T01:25:12.541Z,100849.06
2023-02-23T01:27:49.600Z,100840.81
2023-02-23T01:30:22.403Z,100838.66
2023-02-23T01:32:59.089Z,100836.78
2023-02-23T01:35:25.808Z,100834.13
2023-02-23T01:37:55.811Z,100835.31
2023-02-23T01:40:31.744Z,100827.03
2023-02-23T01:43:25.720Z,100825.13
2023-02-23T01:46:18.533Z,100823.47
2023-02-23T01:48:45.581Z,100828.34
2023-02-23T01:51:18.654Z,100817.13
2023-02-23T01:53:52.606Z,100818.69
2023-02-23T01:56:21.656Z,100822.59
2023-02-23T01:58:52.524Z,100817.41
2023-02-23T02:01:19.850Z,100817.88
2023-02-23T02:06:26.623Z,100820.91
2023-02-23T02:08:55.291Z,100815.88
2023-02-23T02:11:39.080Z,100809.41
2023-02-23T02:14:05.796Z,100799.56
2023-02-23T02:16:32.221Z,100799.50
2023-02-23T02:19:19.143Z,100788.09
2023-02-23T02:22:05.034Z,100784.66
2023-02-23T02:24:34.544Z,100792.41
2023-02-23T02:27:25.515Z,100795.34
2023-02-23T02:30:13.887Z,100791.66
2023-02-23T02:32:59.601Z,100789.28
2023-02-23T02:35:44.412Z,100793.28
2023-02-23T02:38:26.237Z,100787.78
2023-02-23T02:41:04.507Z,100784.66
2023-02-23T02:43:55.388Z,100782.03
2023-02-23T02:46:36.602Z,100782.94
2023-02-23T02:49:25.195Z,100789.38
2023-02-23T02:52:06.272Z,100782.13
2023-02-23T02:54:42.153Z,100788.06
2023-02-23T02:57:11.442Z,100783.06
2023-02-23T03:03:14.154Z,100767.88
2023-02-23T03:06:10.005Z,100771.19
2023-02-23T03:12:17.076Z,100756.31
2023-02-23T03:15:09.590Z,100758.94
2023-02-23T03:18:11.533Z,100766.81
2023-02-23T03:21:02.581Z,100754.50
2023-02-23T03:23:56.668Z,100763.13
2023-02-23T03:27:04.886Z,100759.94
2023-02-23T03:29:57.558Z,100756.25
2023-02-23T03:32:50.619Z,100747.25
2023-02-23T03:35:42.239Z,100758.66
2023-02-23T03:39:02.920Z,100758.66
2023-02-23T03:41:51.602Z,100759.38
2023-02-23T03:44:57.311Z,100760.03
2023-02-23T03:47:44.833Z,100759.41
2023-02-23T03:50:45.415Z,100758.22
2023-02-23T03:53:39.166Z,100750.47
2023-02-23T03:56:25.085Z,100748.06
2023-02-23T03:59:13.297Z,100753.78
2023-02-23T04:01:58.763Z,100744.13
2023-02-23T04:04:46.174Z,100749.88
2023-02-23T04:07:38.262Z,100749.03
2023-02-23T04:10:24.359Z,100743.88
2023-02-23T04:13:16.077Z,100751.38
2023-02-23T04:15:42.463Z,100748.50
2023-02-23T04:18:12.706Z,100738.50
2023-02-23T04:20:39.095Z,100738.63
2023-02-23T04:23:06.377Z,100739.59
2023-02-23T04:25:32.968Z,100740.13
2023-02-23T04:27:59.788Z,100732.84
2023-02-23T04:30:28.761Z,100741.44
2023-02-23T04:32:55.592Z,100739.25
2023-02-23T04:35:23.614Z,100731.25
2023-02-23T04:37:54.424Z,100733.22
2023-02-23T04:40:22.773Z,100731.50
2023-02-23T04:42:57.119Z,100732.38
2023-02-23T04:45:24.761Z,100727.16
2023-02-23T04:48:02.243Z,100725.22
2023-02-23T04:50:30.553Z,100720.38
2023-02-23T04:52:58.109Z,100726.13
2023-02-23T04:58:32.479Z,100716.13
2023-02-23T05:01:07.633Z,100716.53
2023-02-23T05:03:35.778Z,100711.41
2023-02-23T05:06:02.598Z,100715.91
2023-02-23T05:08:29.566Z,100707.84
2023-02-23T05:10:55.979Z,100709.38
2023-02-23T05:13:22.605Z,100705.53
2023-02-23T05:15:50.890Z,100707.44
2023-02-23T05:18:18.162Z,100712.03
2023-02-23T05:20:45.847Z,100714.00
2023-02-23T05:23:12.310Z,100708.31
2023-02-23T05:25:39.697Z,100705.16
2023-02-23T05:28:08.763Z,100715.50
2023-02-23T05:30:36.185Z,100707.28
2023-02-23T05:33:02.728Z,100707.81
2023-02-23T05:35:52.243Z,100709.59
2023-02-23T05:38:20.093Z,100713.63
2023-02-23T05:40:46.651Z,100712.66
2023-02-23T05:43:13.732Z,100712.03
2023-02-23T05:45:41.435Z,100725.03
2023-02-23T05:48:08.933Z,100717.97
2023-02-23T05:50:37.777Z,100723.16
2023-02-23T05:53:04.554Z,100720.28
2023-02-23T05:55:31.693Z,100728.59
2023-02-23T05:57:58.478Z,100731.63
2023-02-23T06:00:25.483Z,100729.81
2023-02-23T06:02:55.239Z,100733.63
2023-02-23T06:05:26.879Z,100737.16
2023-02-23T06:11:26.139Z,100732.75
2023-02-23T06:13:53.077Z,100740.28
2023-02-23T06:16:21.372Z,100733.03
2023-02-23T06:18:50.295Z,100734.69
2023-02-23T06:21:17.378Z,100739.56
2023-02-23T06:23:58.512Z,100746.09
2023-02-23T06:26:28.614Z,100742.75
2023-02-23T06:28:58.375Z,100741.63
2023-02-23T06:31:31.292Z,100739.19
2023-02-23T06:34:13.886Z,100739.19
2023-02-23T06:36:54.549Z,100740.75
2023-02-23T06:39:23.302Z,100738.00
2023-02-23T06:45:10.985Z,100745.56
2023-02-23T06:54:05.643Z,100751.81
2023-02-23T07:14:03.536Z,100757.47
2023-02-23T07:41:25.476Z,100751.22
2023-02-23T07:44:41.217Z,100746.66
2023-02-23T08:18:54.465Z,100740.31
2023-02-23T08:21:50.947Z,100743.06
2023-02-23T08:41:30.758Z,100741.00
2023-02-23T08:44:43.541Z,100729.38
2023-02-23T08:58:07.085Z,100746.44
2023-02-23T09:11:00.642Z,100744.53
2023-02-23T09:13:36.613Z,100742.75
2023-02-23T09:16:06.865Z,100737.44
2023-02-23T09:18:38.029Z,100740.19
2023-02-23T09:21:33.346Z,100727.34
2023-02-23T09:24:34.236Z,100737.84
2023-02-23T09:27:06.988Z,100733.25
2023-02-23T09:29:39.482Z,100731.25
2023-02-23T09:32:15.239Z,100731.72
2023-02-23T09:34:56.289Z,100739.03
2023-02-23T09:37:28.792Z,100735.28
2023-02-23T09:39:58.053Z,100731.44
2023-02-23T09:42:44.586Z,100729.06
2023-02-23T09:48:36.833Z,100734.63
2023-02-23T09:51:14.310Z,100737.47
2023-02-23T09:56:51.758Z,100737.06
2023-02-23T09:59:40.099Z,100740.50
2023-02-23T10:02:18.904Z,100742.28
2023-02-23T10:04:58.604Z,100736.72
2023-02-23T10:07:28.258Z,100735.19
2023-02-23T10:10:02.925Z,100738.38
2023-02-23T10:12:44.266Z,100738.09
2023-02-23T10:15:14.415Z,100738.78
2023-02-23T10:18:14.085Z,100740.25
2023-02-23T10:20:47.065Z,100743.72
2023-02-23T10:23:17.025Z,100741.47
2023-02-23T10:25:46.379Z,100739.78
2023-02-23T10:28:17.324Z,100737.28
2023-02-23T10:30:45.386Z,100736.19
2023-02-23T10:33:22.829Z,100734.25
2023-02-23T10:36:12.760Z,100734.31
2023-02-23T10:38:42.650Z,100736.44
2023-02-23T10:41:10.102Z,100736.44
2023-02-23T10:43:38.957Z,100730.63
2023-02-23T10:46:07.111Z,100733.63
2023-02-23T10:48:40.032Z,100729.59
2023-02-23T10:51:07.687Z,100726.25
2023-02-23T10:53:35.940Z,100728.75
2023-02-23T10:56:05.588Z,100723.81
2023-02-23T10:58:42.352Z,100726.56
2023-02-23T11:01:09.264Z,100727.75
2023-02-23T11:07:02.490Z,100725.28
2023-02-23T11:16:31.499Z,100710.03
2023-02-23T11:19:02.154Z,100708.16
2023-02-23T11:21:35.574Z,100697.78
2023-02-23T11:24:08.527Z,100706.53
2023-02-23T11:26:40.982Z,100698.84
2023-02-23T11:29:16.507Z,100692.22
2023-02-23T11:32:01.468Z,100702.72
2023-02-23T11:34:32.849Z,100690.50
2023-02-23T11:37:01.337Z,100692.06
2023-02-23T11:39:35.161Z,100692.88
2023-02-23T11:42:13.008Z,100684.38
2023-02-23T11:44:39.475Z,100682.66
2023-02-23T11:47:06.340Z,100667.34
2023-02-23T11:49:36.503Z,100671.97
2023-02-23T11:52:05.959Z,100677.38
2023-02-23T11:54:38.942Z,100679.34
2023-02-23T11:57:09.293Z,100665.84
2023-02-23T11:59:40.454Z,100669.53
2023-02-23T12:02:20.860Z,100668.84
2023-02-23T12:04:47.854Z,100662.25
2023-02-23T12:07:41.935Z,100656.16
2023-02-23T12:10:29.576Z,100662.03
2023-02-23T12:13:00.669Z,100657.75
2023-02-23T12:15:35.799Z,100650.69
2023-02-23T12:18:22.817Z,100653.06
2023-02-23T12:20:50.706Z,100648.75
2023-02-23T12:23:22.034Z,100656.78
2023-02-23T12:26:01.971Z,100647.94
2023-02-23T12:28:37.637Z,100645.25
2023-02-23T12:31:07.416Z,100653.28
2023-02-23T12:33:36.580Z,100646.13
2023-02-23T12:36:05.961Z,100642.16
2023-02-23T12:38:35.566Z,100638.91
2023-02-23T12:41:06.332Z,100641.19
2023-02-23T12:43:37.992Z,100641.72
2023-02-23T12:46:26.574Z,100641.41
2023-02-23T12:49:05.650Z,100640.31
2023-02-23T12:52:02.299Z,100633.13
2023-02-23T12:54:35.677Z,100638.72
2023-02-23T12:57:05.198Z,100638.63
2023-02-23T12:59:34.550Z,100641.50
2023-02-23T13:02:24.834Z,100627.81
2023-02-23T13:05:08.057Z,100636.47
2023-02-23T13:07:41.913Z,100624.88
2023-02-23T13:10:27.189Z,100626.00
2023-02-23T13:13:16.286Z,100624.34
2023-02-23T13:15:59.278Z,100617.56
2023-02-23T13:18:35.729Z,100613.81
2023-02-23T13:21:10.233Z,100613.69
2023-02-23T13:23:55.554Z,100615.84
2023-02-23T13:26:28.701Z,100612.84
2023-02-23T13:28:59.720Z,100616.59
2023-02-23T13:31:28.347Z,100619.69
2023-02-23T13:33:56.788Z,100616.91
2023-02-23T13:36:23.572Z,100622.06
2023-02-23T13:39:05.009Z,100622.03
2023-02-23T13:41:40.976Z,100619.91
2023-02-23T13:44:16.645Z,100616.91
2023-02-23T13:46:50.573Z,100623.31
2023-02-23T13:49:35.847Z,100626.72
2023-02-23T13:53:08.061Z,100628.75
2023-02-23T13:55:48.611Z,100625.19
2023-02-23T13:58:17.565Z,100629.41
2023-02-23T14:00:50.042Z,100627.44
2023-02-23T14:03:21.674Z,100632.28
2023-02-23T14:05:52.549Z,100634.22
2023-02-23T14:08:32.608Z,100636.06
2023-02-23T14:10:59.029Z,100636.78
2023-02-23T14:13:54.263Z,100638.72
2023-02-23T14:16:21.017Z,100631.22
2023-02-23T14:19:06.159Z,100626.72
2023-02-23T14:21:37.898Z,100635.75
2023-02-23T14:24:13.050Z,100635.47
2023-02-23T14:26:43.813Z,100639.13
2023-02-23T14:29:20.681Z,100632.50
2023-02-23T14:32:01.565Z,100634.84
2023-02-23T14:34:48.273Z,100629.19
2023-02-23T14:37:17.056Z,100633.41
2023-02-23T14:39:43.712Z,100637.56
2023-02-23T14:42:19.876Z,100630.09
2023-02-23T14:44:59.105Z,100628.09
2023-02-23T14:47:26.868Z,100629.22
2023-02-23T14:50:00.036Z,100631.50
2023-02-23T14:52:35.644Z,100629.22
2023-02-23T14:55:11.178Z,100625.16
2023-02-23T14:57:38.738Z,100629.84
2023-02-23T15:00:13.098Z,100620.47
2023-02-23T15:02:54.134Z,100621.09
2023-02-23T15:05:23.164Z,100621.09
2023-02-23T15:07:52.072Z,100621.38
2023-02-23T15:10:22.391Z,100618.44
2023-02-23T15:12:48.946Z,100623.22
2023-02-23T15:15:19.962Z,100621.94
2023-02-23T15:17:47.735Z,100621.78
2023-02-23T15:20:17.200Z,100622.44
2023-02-23T15:22:46.883Z,100614.03
2023-02-23T15:25:18.489Z,100618.94
2023-02-23T15:27:45.767Z,100613.28
2023-02-23T15:30:18.672Z,100614.69
2023-02-23T15:32:45.597Z,100618.16
2023-02-23T15:35:13.034Z,100621.41
2023-02-23T15:38:05.767Z,100619.13
2023-02-23T16:07:28.021Z,100621.00
2023-02-23T16:17:12.315Z,100607.72
2023-02-23T16:19:44.160Z,100619.06
2023-02-23T16:22:20.254Z,100617.69
2023-02-23T16:24:49.769Z,100618.81
2023-02-23T16:27:23.254Z,100615.09
2023-02-23T16:29:56.583Z,100617.19
2023-02-23T16:32:26.164Z,100610.25
2023-02-23T16:35:42.247Z,100616.06
2023-02-23T16:38:13.679Z,100616.81
2023-02-23T16:40:41.057Z,100607.59
2023-02-23T16:43:08.229Z,100616.94
2023-02-23T16:45:34.964Z,100619.19
2023-02-23T16:48:02.421Z,100616.38
2023-02-23T16:50:29.425Z,100614.81
2023-02-23T16:52:55.809Z,100613.88
2023-02-23T16:55:29.104Z,100616.44
2023-02-23T16:58:06.265Z,100621.69
2023-02-23T17:00:54.984Z,100621.75
2023-02-23T17:27:41.510Z,100613.59
2023-02-23T17:30:52.485Z,100614.63
2023-02-23T17:33:18.998Z,100621.69
2023-02-23T17:35:46.153Z,100612.25
2023-02-23T17:38:12.999Z,100616.53
2023-02-23T17:40:42.596Z,100617.03
2023-02-23T17:43:18.302Z,100614.66
2023-02-23T17:45:48.348Z,100609.09
2023-02-23T17:48:15.268Z,100607.13
2023-02-23T17:51:11.752Z,100614.63
2023-02-23T17:53:46.195Z,100613.28
2023-02-23T17:56:13.232Z,100614.16
2023-02-23T17:58:44.075Z,100610.06
2023-02-23T18:01:11.013Z,100608.47
2023-02-23T18:03:50.145Z,100608.72
2023-02-23T18:06:17.307Z,100609.88
2023-02-23T18:09:28.913Z,100607.91
2023-02-23T18:11:56.753Z,100603.59
2023-02-23T18:14:28.946Z,100604.66
2023-02-23T18:17:03.438Z,100599.78
2023-02-23T18:19:48.040Z,100598.75
2023-02-23T18:22:38.441Z,100598.06
2023-02-23T18:25:05.319Z,100604.81
2023-02-23T18:27:32.237Z,100599.41
2023-02-23T18:29:58.779Z,100600.63
2023-02-23T18:32:25.706Z,100593.88
2023-02-23T18:35:01.562Z,100594.25
2023-02-23T18:37:28.890Z,100589.22
2023-02-23T18:41:00.234Z,100591.78
2023-02-23T18:43:52.404Z,100599.69
2023-02-23T18:46:36.026Z,100599.09
2023-02-23T18:49:59.242Z,100599.00
2023-02-23T18:52:37.529Z,100595.88
2023-02-23T18:58:10.019Z,100590.84
2023-02-23T19:03:55.602Z,100592.13
2023-02-23T19:06:23.447Z,100596.75
2023-02-23T19:12:47.044Z,100590.16
2023-02-23T19:15:15.993Z,100590.06
2023-02-23T19:17:42.586Z,100584.47
2023-02-23T19:20:13.474Z,100588.81
2023-02-23T19:22:41.114Z,100583.50
2023-02-23T22:24:09.756Z,100527.34
2023-02-23T22:26:37.772Z,100519.63
2023-02-23T22:29:07.457Z,100513.81
2023-02-23T22:31:37.522Z,100513.66
2023-02-23T22:34:09.233Z,100513.03
2023-02-23T22:36:51.005Z,100514.75
2023-02-23T22:39:18.932Z,100501.88
2023-02-23T22:41:46.322Z,100498.03
2023-02-23T22:44:25.803Z,100492.81
2023-02-23T22:46:53.279Z,100498.03
2023-02-23T22:49:20.490Z,100492.59
2023-02-23T22:51:54.715Z,100494.75
2023-02-23T22:57:59.172Z,100493.03
2023-02-23T23:00:34.587Z,100491.41
2023-02-23T23:03:05.259Z,100486.53
2023-02-23T23:05:32.955Z,100489.38
2023-02-23T23:08:10.304Z,100486.63
2023-02-23T23:10:39.441Z,100486.03
2023-02-23T23:13:15.203Z,100480.88
2023-02-23T23:15:50.382Z,100485.88
2023-02-23T23:18:23.671Z,100477.88
2023-02-23T23:20:58.040Z,100483.09
2023-02-23T23:23:26.213Z,100471.63
2023-02-23T23:26:00.598Z,100488.09
2023-02-23T23:28:28.714Z,100476.16
2023-02-23T23:30:56.253Z,100473.75
2023-02-23T23:33:24.337Z,100472.50
2023-02-23T23:35:54.870Z,100474.47
2023-02-23T23:38:36.102Z,100471.19
